RJCWRJCN

Guest
Details From RJCW - WAKKANAI
To RJCN - NAKASHIBETSU
Flight Number -
Tags generated
Created
Modified
Stats Distance 175 nm / 324 km
Max Altitude 13,600 ft / 4,145 m
Waypoints 4
Social Downloads 0
Likes 0
Share VATSIM

Download

Looking for another format? Having issues loading an existing format? Contact us
Advertisement - Login to hide

Notes

Basic altitude profile: - Ascent Rate: 2500ft/min - Ascent Speed: 250kts - Cruise Altitude: 35000ft - Cruise Speed: 420kts - Descent Rate: 1500ft/min - Descent Speed: 250kts Options: - Use NATs: yes - Use PACOTS: yes - Use low airways: yes - Use high airways: yes

Route

RJCW SAKIN V3 TBE03 RJCN

ID Type Via Altitude Latitude Longitude Leg Dist Tot Dist Heading (true) Name
O RJCW APT - 0 ft / 0 m 45.40411˚ 141.80093˚ - 0 nm - WAKKANAI
SAKIN FIX - 9,600 ft / 2,926 m 45.07384˚ 142.32819˚ 29 nm 29 nm 131° / 132° -
TBE03 FIX V3 (AWY-LO) 13,600 ft / 4,145 m 44.21762˚ 143.64863˚ 76 nm 106 nm 132° / 133° -
O RJCN APT - 0 ft / 0 m 43.57743˚ 144.95979˚ 68 nm 174 nm 124° / 125° NAKASHIBETSU

Altitude Profile

Advertisement - Login to hide

Weather


0- 5 10 15 20 25 30 35+ Temperature / ° C

Clouds and Precipitation
Forecast for 2017-12-11 06:00 UTC. Updated an hour ago

Ground ~20,000 ft ~40,000 ft Winds

RJCW

Details ICAO RJCW (WKJ)
Name WAKKANAI
Region Japan
Timezone Asia/Tokyo (UTC+9.0)
Stats Elevation 30 ft / 9 m (AMSL)
Location 45.404111° 141.800926°
Runways 1
Magnetic Variation 10.147° W

METAR

RJCW 110232Z 10030G45KT 2000 R08/0900VP2000U -SHSN FEW004 BKN010 BKN040 01/M01 Q0996 RMK 1ST004 5ST010 6CU040 A2941

Decode

TAF

Not found

Departure Runways

ID Width Length Bearing (true) Bearing (mag) Surface Threshold Offset Overrun Length
08 150 ft / 46 m 6,548 ft / 1,996 m 68.83° 78.98° Asphalt 0 ft / 0 m 200 ft / 61 m
26 150 ft / 46 m 6,548 ft / 1,996 m 248.85° 259.00° Asphalt 0 ft / 0 m 200 ft / 61 m

RJCN

Details ICAO RJCN (SHB)
Name NAKASHIBETSU
Region Japan
Timezone Asia/Tokyo (UTC+9.0)
Stats Elevation 234 ft / 71 m (AMSL)
Location 43.577427° 144.959791°
Runways 1
Magnetic Variation 8.928° W

METAR

RJCN 110200Z 03011KT 5000 -SHRASN BR FEW003 SCT004 BKN006 00/M00 Q1001

Decode

TAF

Not found

Destination Runways

ID Width Length Bearing (true) Bearing (mag) Surface Threshold Offset Overrun Length
08 150 ft / 46 m 6,549 ft / 1,996 m 70.96° 79.89° Asphalt 0 ft / 0 m 200 ft / 61 m
26 150 ft / 46 m 6,549 ft / 1,996 m 250.97° 259.90° Asphalt 0 ft / 0 m 200 ft / 61 m

Approach Navaids

Runway Type Ident Frequency Range Bearing (true) Bearing (mag) Slope Elevation
08 Localiser INS 109.35 MHz 18 nm / 33 km 70.97° 79.90° - 234 ft / 71 m (AMSL)
08 Glidescope INS 109.35 MHz 10 nm / 19 km 70.97° 79.89° 3.00° 234 ft / 71 m (AMSL)
08 DME INS 109.35 MHz 18 nm / 33 km - - - 234 ft / 71 m (AMSL)